Grand Canyon National Park, AZ

03:12 AM MST on Mars 27, 2015 (GMT -0700)
KAZGRAND3 | | Change Station
CLOSE
Current Station
Personal Weather Stations
Location: Grand Canyon, AZ
Elevation: 6991 ft
Nearby Weather Stations

Elev 6991 ft 36.05 °N, 112.12 °W | Updated 6 seconds ago

Klart
Klart
30.6 °F
Feels Like 31 °F
N
0.0
Vind Växlande Vind from N/NO
Gusts 0.0 miles/tim

Idag
High -- | Low -- °F
--% Chance of Precip.
Yesterday
High -- | Low -- °F
Precip. -- tum
6:22 AM 6:46 PM
Första kvarteret, 51% visible
Lufttryck 30.26 tum
Sikt 10.0 miles
Molnigt Klart
Vindavkylning 31 °F
Daggpunkt 18 °F
Luftfuktighet 58%
Rainfall 0.00 tum
Snow Depth Not available.
UV 0 out of 12
Pollen 10.00 out of 12
Air Quality Not available.
Flu Activity Not available.
METAR KGCN 270954Z 09003KT 10SM CLR M03/M08 A3037 RMK AO2 SLP246 T10331083

More Conditions Fewer Conditions

Lufttryck 30.26 tum
Sikt 10.0 miles
Molnigt Klart
Vindavkylning 31 °F
Daggpunkt 18 °F
Luftfuktighet 58%
Rainfall 0.00 tum
Snow Depth Not available.
UV 0 out of 12
Pollen 10.00 out of 12
Air Quality Not available.
Flu Activity Not available.
METAR KGCN 270954Z 09003KT 10SM CLR M03/M08 A3037 RMK AO2 SLP246 T10331083

More Conditions Fewer Conditions

10-Day Weather Forecast

Almanac

Astronomi

Mar. 27, 2015 Rise Set
Actual Time
Civil Twilight
Nautical Twilight
Astronomical Twilight
Månen
Length Of Visible Light
Dagens längd
Tomorrow will be .
, % of the Moon is Illuminated

Today's Extremes

State Highs State Lows

Community

WunderPhotos

Upload Photos

1,808,705 photos uploaded!

WunderBlogs® & News

Nearby

Air Quality

  Air Quality AQ Index Pollutant
Not available.

Snödjup

Station Depth Elevation

Earthquake Activity

Stad Distance Mag. Time & Date
Minimum magnitude displayed is 2.5.

Coastal Water Temperatures

Plats Temperatur

Stations

Nearby Weather Stations

Station Location Temp Vindavkylning Daggpunkt Luftfuktighet Vind Precip. Elev Uppdaterad Type